sensor_id;sensor_type;location;lat;lon;timestamp;temperature;humidity
19966;DHT22;10144;50.874;4.762;2022-10-24T00:01:31;18.20;99.90
19966;DHT22;10144;50.874;4.762;2022-10-24T00:04:00;18.20;99.90
19966;DHT22;10144;50.874;4.762;2022-10-24T00:06:33;18.20;99.90
19966;DHT22;10144;50.874;4.762;2022-10-24T00:09:11;18.20;99.90
19966;DHT22;10144;50.874;4.762;2022-10-24T00:11:43;18.30;99.90
19966;DHT22;10144;50.874;4.762;2022-10-24T00:14:11;18.30;99.90
19966;DHT22;10144;50.874;4.762;2022-10-24T00:16:40;18.40;99.90
19966;DHT22;10144;50.874;4.762;2022-10-24T00:19:07;18.40;99.90
19966;DHT22;10144;50.874;4.762;2022-10-24T00:21:36;18.40;99.90
19966;DHT22;10144;50.874;4.762;2022-10-24T00:24:06;18.40;99.90
19966;DHT22;10144;50.874;4.762;2022-10-24T00:26:34;18.40;99.90
19966;DHT22;10144;50.874;4.762;2022-10-24T00:29:06;18.50;99.90
19966;DHT22;10144;50.874;4.762;2022-10-24T00:31:32;18.60;99.90
19966;DHT22;10144;50.874;4.762;2022-10-24T00:34:13;18.50;99.90
19966;DHT22;10144;50.874;4.762;2022-10-24T00:36:42;18.50;99.90
19966;DHT22;10144;50.874;4.762;2022-10-24T00:39:11;18.50;99.90
19966;DHT22;10144;50.874;4.762;2022-10-24T00:41:49;18.50;99.90
19966;DHT22;10144;50.874;4.762;2022-10-24T00:49:44;18.50;99.90
19966;DHT22;10144;50.874;4.762;2022-10-24T00:52:14;18.50;99.90
19966;DHT22;10144;50.874;4.762;2022-10-24T00:54:54;18.60;99.90
19966;DHT22;10144;50.874;4.762;2022-10-24T00:57:34;18.60;99.90
19966;DHT22;10144;50.874;4.762;2022-10-24T01:00:06;18.60;99.90
19966;DHT22;10144;50.874;4.762;2022-10-24T01:02:34;18.60;99.90
19966;DHT22;10144;50.874;4.762;2022-10-24T01:05:06;18.50;99.90
19966;DHT22;10144;50.874;4.762;2022-10-24T01:11:10;18.50;99.90
19966;DHT22;10144;50.874;4.762;2022-10-24T01:16:45;18.50;99.90
19966;DHT22;10144;50.874;4.762;2022-10-24T01:22:05;18.50;99.90
19966;DHT22;10144;50.874;4.762;2022-10-24T01:30:15;18.40;99.90
19966;DHT22;10144;50.874;4.762;2022-10-24T01:33:09;18.40;99.90
19966;DHT22;10144;50.874;4.762;2022-10-24T01:36:03;18.30;99.90
19966;DHT22;10144;50.874;4.762;2022-10-24T01:38:54;18.40;99.90
19966;DHT22;10144;50.874;4.762;2022-10-24T01:41:25;18.40;99.90
19966;DHT22;10144;50.874;4.762;2022-10-24T01:44:15;18.30;99.90
19966;DHT22;10144;50.874;4.762;2022-10-24T01:46:56;18.30;99.90
19966;DHT22;10144;50.874;4.762;2022-10-24T01:49:26;18.30;99.90
19966;DHT22;10144;50.874;4.762;2022-10-24T01:51:57;18.20;99.90
19966;DHT22;10144;50.874;4.762;2022-10-24T01:54:30;18.20;99.90
19966;DHT22;10144;50.874;4.762;2022-10-24T01:56:57;18.20;99.90
19966;DHT22;10144;50.874;4.762;2022-10-24T02:02:05;18.10;99.90
19966;DHT22;10144;50.874;4.762;2022-10-24T02:04:37;18.10;99.90
19966;DHT22;10144;50.874;4.762;2022-10-24T02:07:08;18.10;99.90
19966;DHT22;10144;50.874;4.762;2022-10-24T02:09:40;18.10;99.90
19966;DHT22;10144;50.874;4.762;2022-10-24T02:12:11;18.10;99.90
19966;DHT22;10144;50.874;4.762;2022-10-24T02:14:46;18.10;99.90
19966;DHT22;10144;50.874;4.762;2022-10-24T02:17:19;18.10;99.90
19966;DHT22;10144;50.874;4.762;2022-10-24T02:19:46;18.00;99.90
19966;DHT22;10144;50.874;4.762;2022-10-24T02:22:23;18.00;99.90
19966;DHT22;10144;50.874;4.762;2022-10-24T02:25:04;17.90;99.90
19966;DHT22;10144;50.874;4.762;2022-10-24T02:27:49;17.80;99.90
19966;DHT22;10144;50.874;4.762;2022-10-24T02:30:18;17.80;99.90
19966;DHT22;10144;50.874;4.762;2022-10-24T02:32:54;17.80;99.90
19966;DHT22;10144;50.874;4.762;2022-10-24T02:35:25;17.80;99.90
19966;DHT22;10144;50.874;4.762;2022-10-24T02:38:01;17.70;99.90
19966;DHT22;10144;50.874;4.762;2022-10-24T02:40:31;17.80;99.90
19966;DHT22;10144;50.874;4.762;2022-10-24T02:42:59;17.80;99.90
19966;DHT22;10144;50.874;4.762;2022-10-24T02:45:28;17.80;99.90
19966;DHT22;10144;50.874;4.762;2022-10-24T02:47:59;17.90;99.90
19966;DHT22;10144;50.874;4.762;2022-10-24T02:50:51;17.80;99.90
19966;DHT22;10144;50.874;4.762;2022-10-24T02:53:24;17.80;99.90
19966;DHT22;10144;50.874;4.762;2022-10-24T02:55:50;17.70;99.90
19966;DHT22;10144;50.874;4.762;2022-10-24T02:58:16;17.80;99.90
19966;DHT22;10144;50.874;4.762;2022-10-24T03:00:44;17.70;99.90
19966;DHT22;10144;50.874;4.762;2022-10-24T03:03:20;17.70;99.90
19966;DHT22;10144;50.874;4.762;2022-10-24T03:05:47;17.60;99.90
19966;DHT22;10144;50.874;4.762;2022-10-24T03:08:19;17.60;99.90
19966;DHT22;10144;50.874;4.762;2022-10-24T03:10:48;17.60;99.90
19966;DHT22;10144;50.874;4.762;2022-10-24T03:13:13;17.60;99.90
19966;DHT22;10144;50.874;4.762;2022-10-24T03:15:42;17.60;99.90
19966;DHT22;10144;50.874;4.762;2022-10-24T03:18:08;17.60;99.90
19966;DHT22;10144;50.874;4.762;2022-10-24T03:20:37;17.60;99.90
19966;DHT22;10144;50.874;4.762;2022-10-24T03:23:05;17.60;99.90
19966;DHT22;10144;50.874;4.762;2022-10-24T03:25:33;17.50;99.90
19966;DHT22;10144;50.874;4.762;2022-10-24T03:28:03;17.50;99.90
19966;DHT22;10144;50.874;4.762;2022-10-24T03:30:31;17.50;99.90
19966;DHT22;10144;50.874;4.762;2022-10-24T03:33:02;17.50;99.90
19966;DHT22;10144;50.874;4.762;2022-10-24T03:35:31;17.50;99.90
19966;DHT22;10144;50.874;4.762;2022-10-24T03:38:02;17.50;99.90
19966;DHT22;10144;50.874;4.762;2022-10-24T03:40:28;17.50;99.90
19966;DHT22;10144;50.874;4.762;2022-10-24T03:43:00;17.50;99.90
19966;DHT22;10144;50.874;4.762;2022-10-24T03:45:29;17.40;99.90
19966;DHT22;10144;50.874;4.762;2022-10-24T03:47:56;17.40;99.90
19966;DHT22;10144;50.874;4.762;2022-10-24T03:50:21;17.50;99.90
19966;DHT22;10144;50.874;4.762;2022-10-24T03:52:53;17.40;99.90
19966;DHT22;10144;50.874;4.762;2022-10-24T03:55:28;17.40;99.90
19966;DHT22;10144;50.874;4.762;2022-10-24T03:57:56;17.40;99.90
19966;DHT22;10144;50.874;4.762;2022-10-24T04:00:29;17.30;99.90
19966;DHT22;10144;50.874;4.762;2022-10-24T04:02:56;17.30;99.90
19966;DHT22;10144;50.874;4.762;2022-10-24T04:05:26;17.30;99.90
19966;DHT22;10144;50.874;4.762;2022-10-24T04:07:52;17.20;99.90
19966;DHT22;10144;50.874;4.762;2022-10-24T04:10:21;17.20;99.90
19966;DHT22;10144;50.874;4.762;2022-10-24T04:12:50;17.30;99.90
19966;DHT22;10144;50.874;4.762;2022-10-24T04:15:19;17.30;99.90
19966;DHT22;10144;50.874;4.762;2022-10-24T04:17:45;17.20;99.90
19966;DHT22;10144;50.874;4.762;2022-10-24T04:20:13;17.10;99.90
19966;DHT22;10144;50.874;4.762;2022-10-24T04:22:43;17.10;99.90
19966;DHT22;10144;50.874;4.762;2022-10-24T04:25:12;17.10;99.90
19966;DHT22;10144;50.874;4.762;2022-10-24T04:27:48;17.20;99.90
19966;DHT22;10144;50.874;4.762;2022-10-24T04:30:17;17.20;99.90
19966;DHT22;10144;50.874;4.762;2022-10-24T04:32:43;17.10;99.90
19966;DHT22;10144;50.874;4.762;2022-10-24T04:35:09;17.00;99.90
19966;DHT22;10144;50.874;4.762;2022-10-24T04:37:36;17.00;99.90
19966;DHT22;10144;50.874;4.762;2022-10-24T04:40:02;17.00;99.90
19966;DHT22;10144;50.874;4.762;2022-10-24T04:42:31;17.10;99.90
19966;DHT22;10144;50.874;4.762;2022-10-24T04:45:32;17.10;99.90
19966;DHT22;10144;50.874;4.762;2022-10-24T04:48:01;17.10;99.90
19966;DHT22;10144;50.874;4.762;2022-10-24T04:50:26;17.10;99.90
19966;DHT22;10144;50.874;4.762;2022-10-24T04:52:53;17.10;99.90
19966;DHT22;10144;50.874;4.762;2022-10-24T04:55:20;17.00;99.90
19966;DHT22;10144;50.874;4.762;2022-10-24T04:57:49;17.10;99.90
19966;DHT22;10144;50.874;4.762;2022-10-24T05:00:17;17.10;99.90
19966;DHT22;10144;50.874;4.762;2022-10-24T05:02:43;17.10;99.90
19966;DHT22;10144;50.874;4.762;2022-10-24T05:05:15;17.10;99.90
19966;DHT22;10144;50.874;4.762;2022-10-24T05:07:45;17.10;99.90
19966;DHT22;10144;50.874;4.762;2022-10-24T05:10:14;17.10;99.90
19966;DHT22;10144;50.874;4.762;2022-10-24T05:12:41;17.20;99.90
19966;DHT22;10144;50.874;4.762;2022-10-24T05:15:11;17.20;99.90
19966;DHT22;10144;50.874;4.762;2022-10-24T05:17:39;17.10;99.90
19966;DHT22;10144;50.874;4.762;2022-10-24T05:20:08;17.20;99.90
19966;DHT22;10144;50.874;4.762;2022-10-24T05:22:37;17.10;99.90
19966;DHT22;10144;50.874;4.762;2022-10-24T05:25:06;17.10;99.90
19966;DHT22;10144;50.874;4.762;2022-10-24T05:27:35;17.10;99.90
19966;DHT22;10144;50.874;4.762;2022-10-24T05:30:03;17.10;99.90
19966;DHT22;10144;50.874;4.762;2022-10-24T05:32:32;17.10;99.90
19966;DHT22;10144;50.874;4.762;2022-10-24T05:35:00;17.10;99.90
19966;DHT22;10144;50.874;4.762;2022-10-24T05:37:43;17.10;99.90
19966;DHT22;10144;50.874;4.762;2022-10-24T05:40:12;17.20;99.90
19966;DHT22;10144;50.874;4.762;2022-10-24T05:42:44;17.10;99.90
19966;DHT22;10144;50.874;4.762;2022-10-24T05:45:11;17.10;99.90
19966;DHT22;10144;50.874;4.762;2022-10-24T05:47:37;17.10;99.90
19966;DHT22;10144;50.874;4.762;2022-10-24T05:50:04;17.10;99.90
19966;DHT22;10144;50.874;4.762;2022-10-24T05:52:33;17.10;99.90
19966;DHT22;10144;50.874;4.762;2022-10-24T05:55:05;17.10;99.90
19966;DHT22;10144;50.874;4.762;2022-10-24T05:57:33;17.10;99.90
19966;DHT22;10144;50.874;4.762;2022-10-24T06:00:04;17.00;99.90
19966;DHT22;10144;50.874;4.762;2022-10-24T06:02:49;17.00;99.90
19966;DHT22;10144;50.874;4.762;2022-10-24T06:05:15;17.00;99.90
19966;DHT22;10144;50.874;4.762;2022-10-24T06:07:43;17.00;99.90
19966;DHT22;10144;50.874;4.762;2022-10-24T06:10:12;17.00;99.90
19966;DHT22;10144;50.874;4.762;2022-10-24T06:12:40;17.00;99.90
19966;DHT22;10144;50.874;4.762;2022-10-24T06:15:12;17.00;99.90
19966;DHT22;10144;50.874;4.762;2022-10-24T06:17:40;17.00;99.90
19966;DHT22;10144;50.874;4.762;2022-10-24T06:20:06;17.00;99.90
19966;DHT22;10144;50.874;4.762;2022-10-24T06:22:31;17.00;99.90
19966;DHT22;10144;50.874;4.762;2022-10-24T06:25:00;17.10;99.90
19966;DHT22;10144;50.874;4.762;2022-10-24T06:27:29;17.10;99.90
19966;DHT22;10144;50.874;4.762;2022-10-24T06:29:56;17.10;99.90
19966;DHT22;10144;50.874;4.762;2022-10-24T06:32:32;17.10;99.90
19966;DHT22;10144;50.874;4.762;2022-10-24T06:35:01;17.10;99.90
19966;DHT22;10144;50.874;4.762;2022-10-24T06:37:33;17.10;99.90
19966;DHT22;10144;50.874;4.762;2022-10-24T06:39:59;17.10;99.90
19966;DHT22;10144;50.874;4.762;2022-10-24T06:42:27;17.20;99.90
19966;DHT22;10144;50.874;4.762;2022-10-24T06:44:58;17.30;99.90
19966;DHT22;10144;50.874;4.762;2022-10-24T06:47:24;17.40;99.90
19966;DHT22;10144;50.874;4.762;2022-10-24T06:49:51;17.40;99.90
19966;DHT22;10144;50.874;4.762;2022-10-24T06:52:16;17.30;99.90
19966;DHT22;10144;50.874;4.762;2022-10-24T06:54:42;17.30;99.90
19966;DHT22;10144;50.874;4.762;2022-10-24T06:57:08;17.30;99.90
19966;DHT22;10144;50.874;4.762;2022-10-24T06:59:33;17.30;99.90
19966;DHT22;10144;50.874;4.762;2022-10-24T07:01:59;17.30;99.90
19966;DHT22;10144;50.874;4.762;2022-10-24T07:04:25;17.30;99.90
19966;DHT22;10144;50.874;4.762;2022-10-24T07:06:50;17.30;99.90
19966;DHT22;10144;50.874;4.762;2022-10-24T07:09:16;17.40;99.90
19966;DHT22;10144;50.874;4.762;2022-10-24T07:11:45;17.50;99.90
19966;DHT22;10144;50.874;4.762;2022-10-24T07:14:11;17.40;99.90
19966;DHT22;10144;50.874;4.762;2022-10-24T07:16:37;17.50;99.90
19966;DHT22;10144;50.874;4.762;2022-10-24T07:19:04;17.50;99.90
19966;DHT22;10144;50.874;4.762;2022-10-24T07:21:31;17.50;99.90
19966;DHT22;10144;50.874;4.762;2022-10-24T07:23:58;17.40;99.90
19966;DHT22;10144;50.874;4.762;2022-10-24T07:26:24;17.60;99.90
19966;DHT22;10144;50.874;4.762;2022-10-24T07:28:55;17.90;99.90
19966;DHT22;10144;50.874;4.762;2022-10-24T07:31:25;18.10;99.90
19966;DHT22;10144;50.874;4.762;2022-10-24T07:33:52;18.50;99.90
19966;DHT22;10144;50.874;4.762;2022-10-24T07:36:20;18.80;99.90
19966;DHT22;10144;50.874;4.762;2022-10-24T07:38:47;19.00;99.90
19966;DHT22;10144;50.874;4.762;2022-10-24T07:41:13;19.50;99.90
19966;DHT22;10144;50.874;4.762;2022-10-24T07:43:38;19.90;99.90
19966;DHT22;10144;50.874;4.762;2022-10-24T07:46:09;19.90;99.90
19966;DHT22;10144;50.874;4.762;2022-10-24T07:48:36;19.60;99.90
19966;DHT22;10144;50.874;4.762;2022-10-24T07:51:07;19.50;99.90
19966;DHT22;10144;50.874;4.762;2022-10-24T07:53:33;19.80;99.90
19966;DHT22;10144;50.874;4.762;2022-10-24T07:55:58;20.20;99.90
19966;DHT22;10144;50.874;4.762;2022-10-24T07:58:25;20.50;99.90
19966;DHT22;10144;50.874;4.762;2022-10-24T08:00:51;20.80;99.90
19966;DHT22;10144;50.874;4.762;2022-10-24T08:03:17;20.90;99.90
19966;DHT22;10144;50.874;4.762;2022-10-24T08:05:42;21.20;99.90
19966;DHT22;10144;50.874;4.762;2022-10-24T08:08:08;21.50;99.90
19966;DHT22;10144;50.874;4.762;2022-10-24T08:10:34;21.70;99.90
19966;DHT22;10144;50.874;4.762;2022-10-24T08:13:00;21.70;99.90
19966;DHT22;10144;50.874;4.762;2022-10-24T08:15:26;21.10;99.90
19966;DHT22;10144;50.874;4.762;2022-10-24T08:17:55;20.80;99.90
19966;DHT22;10144;50.874;4.762;2022-10-24T08:20:21;20.50;99.90
19966;DHT22;10144;50.874;4.762;2022-10-24T08:22:48;20.60;99.90
19966;DHT22;10144;50.874;4.762;2022-10-24T08:25:14;20.50;99.90
19966;DHT22;10144;50.874;4.762;2022-10-24T08:27:40;20.40;99.90
19966;DHT22;10144;50.874;4.762;2022-10-24T08:30:07;20.40;99.90
19966;DHT22;10144;50.874;4.762;2022-10-24T08:32:34;20.40;99.90
19966;DHT22;10144;50.874;4.762;2022-10-24T08:35:00;20.50;99.90
19966;DHT22;10144;50.874;4.762;2022-10-24T08:37:26;20.80;99.90
19966;DHT22;10144;50.874;4.762;2022-10-24T08:39:52;20.70;99.90
19966;DHT22;10144;50.874;4.762;2022-10-24T08:42:22;20.80;99.90
19966;DHT22;10144;50.874;4.762;2022-10-24T08:44:48;21.00;99.90
19966;DHT22;10144;50.874;4.762;2022-10-24T08:47:48;20.60;99.90
19966;DHT22;10144;50.874;4.762;2022-10-24T08:55:27;20.40;99.90
19966;DHT22;10144;50.874;4.762;2022-10-24T08:57:57;20.40;99.90
19966;DHT22;10144;50.874;4.762;2022-10-24T09:00:27;20.50;99.90
19966;DHT22;10144;50.874;4.762;2022-10-24T09:05:53;20.40;99.90
19966;DHT22;10144;50.874;4.762;2022-10-24T09:08:49;20.70;99.90
19966;DHT22;10144;50.874;4.762;2022-10-24T09:11:39;20.40;99.90
19966;DHT22;10144;50.874;4.762;2022-10-24T09:14:13;20.60;99.90
19966;DHT22;10144;50.874;4.762;2022-10-24T09:16:41;20.80;99.90
19966;DHT22;10144;50.874;4.762;2022-10-24T09:19:14;21.10;99.90
19966;DHT22;10144;50.874;4.762;2022-10-24T09:21:41;21.60;99.90
19966;DHT22;10144;50.874;4.762;2022-10-24T09:26:52;22.30;99.90
19966;DHT22;10144;50.874;4.762;2022-10-24T09:29:18;22.50;99.90
19966;DHT22;10144;50.874;4.762;2022-10-24T09:31:44;23.00;99.90
19966;DHT22;10144;50.874;4.762;2022-10-24T09:34:10;23.20;99.90
19966;DHT22;10144;50.874;4.762;2022-10-24T09:36:38;23.40;99.90
19966;DHT22;10144;50.874;4.762;2022-10-24T09:39:30;23.70;99.90
19966;DHT22;10144;50.874;4.762;2022-10-24T09:41:57;23.90;99.90
19966;DHT22;10144;50.874;4.762;2022-10-24T09:44:36;24.20;99.90
19966;DHT22;10144;50.874;4.762;2022-10-24T09:47:05;23.50;99.90
19966;DHT22;10144;50.874;4.762;2022-10-24T09:49:35;23.80;99.90
19966;DHT22;10144;50.874;4.762;2022-10-24T09:52:24;23.80;99.90
19966;DHT22;10144;50.874;4.762;2022-10-24T09:55:22;23.60;99.90
19966;DHT22;10144;50.874;4.762;2022-10-24T09:57:52;23.30;99.90
19966;DHT22;10144;50.874;4.762;2022-10-24T10:00:27;22.80;99.90
19966;DHT22;10144;50.874;4.762;2022-10-24T10:03:10;22.40;99.90
19966;DHT22;10144;50.874;4.762;2022-10-24T10:06:23;22.20;99.90
19966;DHT22;10144;50.874;4.762;2022-10-24T10:11:27;22.00;99.90
19966;DHT22;10144;50.874;4.762;2022-10-24T10:13:56;21.80;99.90
19966;DHT22;10144;50.874;4.762;2022-10-24T10:16:25;21.70;99.90
19966;DHT22;10144;50.874;4.762;2022-10-24T10:21:26;21.30;99.90
19966;DHT22;10144;50.874;4.762;2022-10-24T10:23:56;21.10;99.90
19966;DHT22;10144;50.874;4.762;2022-10-24T10:28:55;21.20;99.90
19966;DHT22;10144;50.874;4.762;2022-10-24T10:31:46;21.20;99.90
19966;DHT22;10144;50.874;4.762;2022-10-24T10:47:37;21.10;99.90
19966;DHT22;10144;50.874;4.762;2022-10-24T10:50:26;20.80;99.90
19966;DHT22;10144;50.874;4.762;2022-10-24T10:52:58;20.60;99.90
19966;DHT22;10144;50.874;4.762;2022-10-24T10:55:40;20.60;99.90
19966;DHT22;10144;50.874;4.762;2022-10-24T10:58:41;20.20;99.90
19966;DHT22;10144;50.874;4.762;2022-10-24T11:14:44;20.90;99.90
19966;DHT22;10144;50.874;4.762;2022-10-24T11:17:16;20.90;99.90
19966;DHT22;10144;50.874;4.762;2022-10-24T11:22:16;20.60;99.90
19966;DHT22;10144;50.874;4.762;2022-10-24T11:24:51;20.70;99.90
19966;DHT22;10144;50.874;4.762;2022-10-24T11:27:37;20.70;99.90
19966;DHT22;10144;50.874;4.762;2022-10-24T11:30:13;20.60;99.90
19966;DHT22;10144;50.874;4.762;2022-10-24T11:32:41;20.40;99.90
19966;DHT22;10144;50.874;4.762;2022-10-24T11:35:31;20.30;99.90
19966;DHT22;10144;50.874;4.762;2022-10-24T11:38:17;20.20;99.90
19966;DHT22;10144;50.874;4.762;2022-10-24T11:40:47;20.00;99.90
19966;DHT22;10144;50.874;4.762;2022-10-24T11:43:31;20.00;99.90
19966;DHT22;10144;50.874;4.762;2022-10-24T11:46:18;19.90;99.90
19966;DHT22;10144;50.874;4.762;2022-10-24T11:48:58;19.90;99.90
19966;DHT22;10144;50.874;4.762;2022-10-24T11:51:39;19.90;99.90
19966;DHT22;10144;50.874;4.762;2022-10-24T11:54:15;19.90;99.90
19966;DHT22;10144;50.874;4.762;2022-10-24T11:56:47;19.90;99.90
19966;DHT22;10144;50.874;4.762;2022-10-24T11:59:21;19.70;99.90
19966;DHT22;10144;50.874;4.762;2022-10-24T12:10:15;19.30;99.90
19966;DHT22;10144;50.874;4.762;2022-10-24T12:18:09;19.20;99.90
19966;DHT22;10144;50.874;4.762;2022-10-24T12:20:37;19.00;99.90
19966;DHT22;10144;50.874;4.762;2022-10-24T12:23:04;18.80;99.90
19966;DHT22;10144;50.874;4.762;2022-10-24T12:25:33;18.60;99.90
19966;DHT22;10144;50.874;4.762;2022-10-24T12:28:23;18.40;99.90
19966;DHT22;10144;50.874;4.762;2022-10-24T12:31:27;18.10;99.90
19966;DHT22;10144;50.874;4.762;2022-10-24T12:39:44;17.90;99.90
19966;DHT22;10144;50.874;4.762;2022-10-24T12:56:13;17.60;99.90
19966;DHT22;10144;50.874;4.762;2022-10-24T12:58:24;17.40;99.90
19966;DHT22;10144;50.874;4.762;2022-10-24T13:01:26;17.30;99.90
19966;DHT22;10144;50.874;4.762;2022-10-24T13:12:22;17.10;99.90
19966;DHT22;10144;50.874;4.762;2022-10-24T13:21:26;16.80;99.90
19966;DHT22;10144;50.874;4.762;2022-10-24T13:23:52;16.70;99.90
19966;DHT22;10144;50.874;4.762;2022-10-24T13:34:51;16.80;99.90
19966;DHT22;10144;50.874;4.762;2022-10-24T13:37:39;16.80;99.90
19966;DHT22;10144;50.874;4.762;2022-10-24T13:40:17;16.90;99.90
19966;DHT22;10144;50.874;4.762;2022-10-24T13:45:26;17.10;99.90
19966;DHT22;10144;50.874;4.762;2022-10-24T13:47:58;17.20;99.90
19966;DHT22;10144;50.874;4.762;2022-10-24T13:50:28;17.20;99.90
19966;DHT22;10144;50.874;4.762;2022-10-24T13:55:42;17.30;99.90
19966;DHT22;10144;50.874;4.762;2022-10-24T13:58:21;17.40;99.90
19966;DHT22;10144;50.874;4.762;2022-10-24T14:00:59;17.60;99.90
19966;DHT22;10144;50.874;4.762;2022-10-24T14:03:28;17.60;99.90
19966;DHT22;10144;50.874;4.762;2022-10-24T14:05:58;17.60;99.90
19966;DHT22;10144;50.874;4.762;2022-10-24T14:08:41;17.60;99.90
19966;DHT22;10144;50.874;4.762;2022-10-24T14:11:17;17.60;99.90
19966;DHT22;10144;50.874;4.762;2022-10-24T14:13:48;17.70;99.90
19966;DHT22;10144;50.874;4.762;2022-10-24T14:16:39;17.70;99.90
19966;DHT22;10144;50.874;4.762;2022-10-24T14:21:46;17.80;99.90
19966;DHT22;10144;50.874;4.762;2022-10-24T14:24:18;17.80;99.90
19966;DHT22;10144;50.874;4.762;2022-10-24T14:26:49;17.80;99.90
19966;DHT22;10144;50.874;4.762;2022-10-24T14:29:29;17.90;99.90
19966;DHT22;10144;50.874;4.762;2022-10-24T14:32:14;17.90;99.90
19966;DHT22;10144;50.874;4.762;2022-10-24T14:34:40;18.00;99.90
19966;DHT22;10144;50.874;4.762;2022-10-24T14:37:30;18.00;99.90
19966;DHT22;10144;50.874;4.762;2022-10-24T14:40:00;17.90;99.90
19966;DHT22;10144;50.874;4.762;2022-10-24T14:42:31;17.80;99.90
19966;DHT22;10144;50.874;4.762;2022-10-24T14:44:58;17.70;99.90
19966;DHT22;10144;50.874;4.762;2022-10-24T14:47:35;17.60;99.90
19966;DHT22;10144;50.874;4.762;2022-10-24T14:50:36;17.50;99.90
19966;DHT22;10144;50.874;4.762;2022-10-24T14:53:05;17.40;99.90
19966;DHT22;10144;50.874;4.762;2022-10-24T14:55:34;17.50;99.90
19966;DHT22;10144;50.874;4.762;2022-10-24T14:58:01;17.60;99.90
19966;DHT22;10144;50.874;4.762;2022-10-24T15:00:41;17.60;99.90
19966;DHT22;10144;50.874;4.762;2022-10-24T15:03:10;17.60;99.90
19966;DHT22;10144;50.874;4.762;2022-10-24T15:06:15;17.60;99.90
19966;DHT22;10144;50.874;4.762;2022-10-24T15:08:41;17.60;99.90
19966;DHT22;10144;50.874;4.762;2022-10-24T15:11:18;17.50;99.90
19966;DHT22;10144;50.874;4.762;2022-10-24T15:13:51;17.30;99.90
19966;DHT22;10144;50.874;4.762;2022-10-24T15:16:27;17.10;99.90
19966;DHT22;10144;50.874;4.762;2022-10-24T15:18:59;17.00;99.90
19966;DHT22;10144;50.874;4.762;2022-10-24T15:21:34;17.00;99.90
19966;DHT22;10144;50.874;4.762;2022-10-24T15:24:00;17.10;99.90
19966;DHT22;10144;50.874;4.762;2022-10-24T15:31:44;17.00;99.90
19966;DHT22;10144;50.874;4.762;2022-10-24T15:34:18;17.20;99.90
19966;DHT22;10144;50.874;4.762;2022-10-24T15:36:45;17.20;99.90
19966;DHT22;10144;50.874;4.762;2022-10-24T15:39:14;17.20;99.90
19966;DHT22;10144;50.874;4.762;2022-10-24T15:41:40;17.20;99.90
19966;DHT22;10144;50.874;4.762;2022-10-24T15:44:46;17.20;99.90
19966;DHT22;10144;50.874;4.762;2022-10-24T15:47:05;17.10;99.90
19966;DHT22;10144;50.874;4.762;2022-10-24T15:49:32;17.00;99.90
19966;DHT22;10144;50.874;4.762;2022-10-24T15:51:58;16.90;99.90
19966;DHT22;10144;50.874;4.762;2022-10-24T15:54:24;16.80;99.90
19966;DHT22;10144;50.874;4.762;2022-10-24T15:56:53;16.60;99.90
19966;DHT22;10144;50.874;4.762;2022-10-24T15:59:19;16.60;99.90
19966;DHT22;10144;50.874;4.762;2022-10-24T16:01:50;16.50;99.90
19966;DHT22;10144;50.874;4.762;2022-10-24T16:04:17;16.40;99.90
19966;DHT22;10144;50.874;4.762;2022-10-24T16:06:43;16.40;99.90
19966;DHT22;10144;50.874;4.762;2022-10-24T16:09:18;16.40;99.90
19966;DHT22;10144;50.874;4.762;2022-10-24T16:11:44;16.30;99.90
19966;DHT22;10144;50.874;4.762;2022-10-24T16:14:18;16.20;99.90
19966;DHT22;10144;50.874;4.762;2022-10-24T16:16:44;16.20;99.90
19966;DHT22;10144;50.874;4.762;2022-10-24T16:19:10;16.20;99.90
19966;DHT22;10144;50.874;4.762;2022-10-24T16:21:36;16.20;99.90
19966;DHT22;10144;50.874;4.762;2022-10-24T16:24:03;16.20;99.90
19966;DHT22;10144;50.874;4.762;2022-10-24T16:26:28;16.20;99.90
19966;DHT22;10144;50.874;4.762;2022-10-24T16:28:54;16.10;99.90
19966;DHT22;10144;50.874;4.762;2022-10-24T16:31:20;16.10;99.90
19966;DHT22;10144;50.874;4.762;2022-10-24T16:33:49;16.10;99.90
19966;DHT22;10144;50.874;4.762;2022-10-24T16:36:15;16.00;99.90
19966;DHT22;10144;50.874;4.762;2022-10-24T16:38:41;16.00;99.90
19966;DHT22;10144;50.874;4.762;2022-10-24T16:41:19;16.00;99.90
19966;DHT22;10144;50.874;4.762;2022-10-24T16:43:46;15.90;99.90
19966;DHT22;10144;50.874;4.762;2022-10-24T16:46:14;15.90;99.90
19966;DHT22;10144;50.874;4.762;2022-10-24T16:48:41;15.80;99.90
19966;DHT22;10144;50.874;4.762;2022-10-24T16:51:13;15.80;99.90
19966;DHT22;10144;50.874;4.762;2022-10-24T16:53:40;15.80;99.90
19966;DHT22;10144;50.874;4.762;2022-10-24T16:56:09;15.80;99.90
19966;DHT22;10144;50.874;4.762;2022-10-24T16:58:35;15.80;99.90
19966;DHT22;10144;50.874;4.762;2022-10-24T17:01:04;15.80;99.90
19966;DHT22;10144;50.874;4.762;2022-10-24T17:03:31;15.70;99.90
19966;DHT22;10144;50.874;4.762;2022-10-24T17:05:57;15.70;99.90
19966;DHT22;10144;50.874;4.762;2022-10-24T17:08:24;15.70;99.90
19966;DHT22;10144;50.874;4.762;2022-10-24T17:10:51;15.60;99.90
19966;DHT22;10144;50.874;4.762;2022-10-24T17:13:17;15.60;99.90
19966;DHT22;10144;50.874;4.762;2022-10-24T17:15:43;15.60;99.90
19966;DHT22;10144;50.874;4.762;2022-10-24T17:18:09;15.70;99.90
19966;DHT22;10144;50.874;4.762;2022-10-24T17:20:36;15.70;99.90
19966;DHT22;10144;50.874;4.762;2022-10-24T17:23:05;15.60;99.90
19966;DHT22;10144;50.874;4.762;2022-10-24T17:25:31;15.60;99.90
19966;DHT22;10144;50.874;4.762;2022-10-24T17:27:56;15.60;99.90
19966;DHT22;10144;50.874;4.762;2022-10-24T17:30:25;15.70;99.90
19966;DHT22;10144;50.874;4.762;2022-10-24T17:32:52;15.70;99.90
19966;DHT22;10144;50.874;4.762;2022-10-24T17:35:21;15.80;99.90
19966;DHT22;10144;50.874;4.762;2022-10-24T17:40:46;15.80;99.90
19966;DHT22;10144;50.874;4.762;2022-10-24T17:43:23;15.80;99.90
19966;DHT22;10144;50.874;4.762;2022-10-24T17:45:51;15.80;99.90
19966;DHT22;10144;50.874;4.762;2022-10-24T17:48:16;15.80;99.90
19966;DHT22;10144;50.874;4.762;2022-10-24T17:50:42;15.80;99.90
19966;DHT22;10144;50.874;4.762;2022-10-24T17:53:11;15.70;99.90
19966;DHT22;10144;50.874;4.762;2022-10-24T17:55:37;15.80;99.90
19966;DHT22;10144;50.874;4.762;2022-10-24T17:58:03;15.80;99.90
19966;DHT22;10144;50.874;4.762;2022-10-24T18:00:29;15.70;99.90
19966;DHT22;10144;50.874;4.762;2022-10-24T18:02:56;15.70;99.90
19966;DHT22;10144;50.874;4.762;2022-10-24T18:05:21;15.60;99.90
19966;DHT22;10144;50.874;4.762;2022-10-24T18:07:48;15.60;99.90
19966;DHT22;10144;50.874;4.762;2022-10-24T18:10:15;15.70;99.90
19966;DHT22;10144;50.874;4.762;2022-10-24T18:12:41;15.80;99.90
19966;DHT22;10144;50.874;4.762;2022-10-24T18:15:13;15.80;99.90
19966;DHT22;10144;50.874;4.762;2022-10-24T18:17:40;15.60;99.90
19966;DHT22;10144;50.874;4.762;2022-10-24T18:20:07;15.50;99.90